createdAt,value
2018-03-01T00:00:50.077Z,-2.60
2018-03-01T00:03:17.566Z,-2.90
2018-03-01T00:05:45.002Z,-3.10
2018-03-01T00:08:14.020Z,-3.10
2018-03-01T00:10:41.480Z,-2.80
2018-03-01T00:13:09.145Z,-2.80
2018-03-01T00:15:36.612Z,-2.80
2018-03-01T00:18:04.059Z,-3.00
2018-03-01T00:20:31.496Z,-3.00
2018-03-01T00:22:58.930Z,-2.90
2018-03-01T00:25:27.140Z,-2.80
2018-03-01T00:27:54.586Z,-2.80
2018-03-01T00:30:22.130Z,-2.60
2018-03-01T00:32:49.605Z,-2.30
2018-03-01T00:35:17.059Z,-2.50
2018-03-01T00:37:44.478Z,-2.70
2018-03-01T00:40:12.693Z,-2.70
2018-03-01T00:42:40.376Z,-2.70
2018-03-01T00:45:07.838Z,-2.90
2018-03-01T00:47:35.274Z,-3.00
2018-03-01T00:50:02.718Z,-2.90
2018-03-01T00:52:30.152Z,-2.90
2018-03-01T00:54:58.356Z,-2.90
2018-03-01T00:57:25.804Z,-2.90
2018-03-01T00:59:53.236Z,-2.80
2018-03-01T01:02:21.442Z,-2.80
2018-03-01T01:04:48.918Z,-2.90
2018-03-01T01:07:16.340Z,-2.80
2018-03-01T01:09:44.562Z,-2.90
2018-03-01T01:12:11.998Z,-2.90
2018-03-01T01:14:40.367Z,-3.00
2018-03-01T01:17:07.820Z,-2.90
2018-03-01T01:19:35.264Z,-2.80
2018-03-01T01:22:03.460Z,-2.70
2018-03-01T01:24:30.915Z,-2.70
2018-03-01T01:26:58.380Z,-2.80
2018-03-01T01:29:25.859Z,-3.20
2018-03-01T01:31:53.281Z,-3.20
2018-03-01T01:34:21.545Z,-3.00
2018-03-01T01:36:48.933Z,-3.00
2018-03-01T01:39:16.388Z,-2.70
2018-03-01T01:41:44.673Z,-2.70
2018-03-01T01:44:12.105Z,-2.80
2018-03-01T01:46:40.506Z,-2.80
2018-03-01T01:49:07.936Z,-2.80
2018-03-01T01:51:35.405Z,-2.70
2018-03-01T01:54:03.602Z,-2.90
2018-03-01T01:56:31.061Z,-2.90
2018-03-01T01:58:58.553Z,-2.70
2018-03-01T02:01:25.985Z,-2.80
2018-03-01T02:03:53.446Z,-2.90
2018-03-01T02:06:20.901Z,-3.00
2018-03-01T02:08:48.365Z,-3.20
2018-03-01T02:11:15.802Z,-3.20
2018-03-01T02:13:43.253Z,-3.10
2018-03-01T02:16:10.717Z,-3.10
2018-03-01T02:18:38.167Z,-3.10
2018-03-01T02:21:05.601Z,-3.20
2018-03-01T02:23:33.048Z,-3.10
2018-03-01T02:26:01.257Z,-2.80
2018-03-01T02:28:28.716Z,-2.80
2018-03-01T02:30:56.147Z,-2.70
2018-03-01T02:33:23.579Z,-3.00
2018-03-01T02:35:51.018Z,-2.90
2018-03-01T02:38:18.474Z,-3.10
2018-03-01T02:40:45.951Z,-3.00
2018-03-01T02:43:13.401Z,-2.60
2018-03-01T02:45:40.825Z,-2.60
2018-03-01T02:48:08.280Z,-2.80
2018-03-01T02:50:35.773Z,-2.90
2018-03-01T02:53:03.232Z,-2.90
2018-03-01T02:55:30.678Z,-3.00
2018-03-01T02:57:58.158Z,-3.00
2018-03-01T03:00:25.623Z,-3.10
2018-03-01T03:02:53.052Z,-3.00
2018-03-01T03:05:20.502Z,-3.10
2018-03-01T03:07:47.962Z,-3.10
2018-03-01T03:10:15.421Z,-3.10
2018-03-01T03:12:42.868Z,-3.20
2018-03-01T03:15:10.351Z,-3.20
2018-03-01T03:17:37.764Z,-3.10
2018-03-01T03:20:05.205Z,-3.30
2018-03-01T03:22:32.691Z,-3.20
2018-03-01T03:25:00.114Z,-3.20
2018-03-01T03:27:28.316Z,-3.70
2018-03-01T03:29:55.776Z,-3.70
2018-03-01T03:32:23.218Z,-3.50
2018-03-01T03:34:50.658Z,-3.50
2018-03-01T03:37:18.868Z,-3.20
2018-03-01T03:39:46.332Z,-3.20
2018-03-01T03:42:13.781Z,-3.20
2018-03-01T03:44:41.224Z,-3.20
2018-03-01T03:47:08.675Z,-3.30
2018-03-01T03:49:36.119Z,-3.30
2018-03-01T03:52:04.315Z,-3.30
2018-03-01T03:54:31.749Z,-3.30
2018-03-01T03:56:59.959Z,-3.70
2018-03-01T03:59:27.414Z,-3.70
2018-03-01T04:01:54.849Z,-3.60
2018-03-01T04:04:22.293Z,-3.40
2018-03-01T04:06:50.522Z,-3.30
2018-03-01T04:09:17.962Z,-3.30
2018-03-01T04:11:45.408Z,-3.10
2018-03-01T04:14:12.856Z,-3.20
2018-03-01T04:16:40.839Z,-3.00
2018-03-01T04:19:08.310Z,-3.20
2018-03-01T04:21:35.780Z,-3.20
2018-03-01T04:24:03.928Z,-3.20
2018-03-01T04:26:31.373Z,-3.10
2018-03-01T04:28:59.604Z,-2.90
2018-03-01T04:31:27.043Z,-3.00
2018-03-01T04:33:54.502Z,-2.90
2018-03-01T04:36:21.953Z,-2.80
2018-03-01T04:38:49.418Z,-2.90
2018-03-01T04:41:16.861Z,-3.00
2018-03-01T04:43:44.372Z,-3.20
2018-03-01T04:46:11.804Z,-3.00
2018-03-01T04:48:39.269Z,-2.80
2018-03-01T04:51:06.718Z,-3.00
2018-03-01T04:53:34.171Z,-3.20
2018-03-01T04:56:01.652Z,-3.10
2018-03-01T04:58:29.078Z,-3.20
2018-03-01T05:00:56.550Z,-3.30
2018-03-01T05:03:25.513Z,-3.50
2018-03-01T05:05:52.988Z,-3.50
2018-03-01T05:08:20.420Z,-3.40
2018-03-01T05:10:47.867Z,-3.40
2018-03-01T05:13:17.218Z,-3.20
2018-03-01T05:15:44.681Z,-3.20
2018-03-01T05:18:12.885Z,-3.20
2018-03-01T05:20:41.827Z,-3.30
2018-03-01T05:23:09.284Z,-3.30
2018-03-01T05:25:36.777Z,-3.30
2018-03-01T05:28:04.233Z,-3.40
2018-03-01T05:30:31.672Z,-3.30
2018-03-01T05:32:59.113Z,-3.00
2018-03-01T05:35:26.581Z,-3.00
2018-03-01T05:37:54.013Z,-3.10
2018-03-01T05:40:21.453Z,-3.10
2018-03-01T05:42:48.891Z,-2.90
2018-03-01T05:45:17.088Z,-3.00
2018-03-01T05:47:44.577Z,-3.00
2018-03-01T05:50:12.030Z,-3.20
2018-03-01T05:52:39.460Z,-3.10
2018-03-01T05:55:06.907Z,-3.00
2018-03-01T05:57:34.345Z,-2.80
2018-03-01T06:00:01.786Z,-2.80
2018-03-01T06:02:29.254Z,-3.20
2018-03-01T06:04:56.700Z,-2.90
2018-03-01T06:07:24.153Z,-3.10
2018-03-01T06:09:51.577Z,-2.90
2018-03-01T06:12:19.025Z,-3.00
2018-03-01T06:14:46.462Z,-2.90
2018-03-01T06:17:14.675Z,-2.80
2018-03-01T06:19:42.124Z,-2.80
2018-03-01T06:22:09.570Z,-2.70
2018-03-01T06:24:37.008Z,-2.80
2018-03-01T06:27:05.234Z,-3.10
2018-03-01T06:29:32.659Z,-3.10
2018-03-01T06:32:00.095Z,-2.90
2018-03-01T06:34:28.303Z,-3.00
2018-03-01T06:36:55.743Z,-3.00
2018-03-01T06:39:23.179Z,-2.90
2018-03-01T06:41:51.475Z,-3.00
2018-03-01T06:44:18.924Z,-3.00
2018-03-01T06:46:47.144Z,-3.10
2018-03-01T06:49:14.572Z,-3.20
2018-03-01T06:51:42.060Z,-3.00
2018-03-01T06:54:09.502Z,-2.90
2018-03-01T06:56:36.939Z,-2.90
2018-03-01T06:59:04.435Z,-2.70
2018-03-01T07:01:32.592Z,-2.80
2018-03-01T07:04:00.052Z,-2.80
2018-03-01T07:06:27.493Z,-2.80
2018-03-01T07:08:54.966Z,-2.50
2018-03-01T07:11:22.403Z,-2.60
2018-03-01T07:13:49.828Z,-2.60
2018-03-01T07:16:17.298Z,-2.60
2018-03-01T07:18:44.814Z,-2.70
2018-03-01T07:21:12.260Z,-2.70
2018-03-01T07:23:39.709Z,-2.20
2018-03-01T07:26:07.134Z,-1.70
2018-03-01T07:28:35.347Z,-1.60
2018-03-01T07:31:02.813Z,-1.60
2018-03-01T07:33:30.255Z,-1.70
2018-03-01T07:35:57.696Z,-1.70
2018-03-01T07:38:25.903Z,-1.10
2018-03-01T07:40:53.363Z,-1.10
2018-03-01T07:43:20.809Z,-0.80
2018-03-01T07:45:48.279Z,-0.80
2018-03-01T07:48:15.725Z,-0.40
2018-03-01T07:50:43.185Z,0.10
2018-03-01T07:53:10.629Z,0.40
2018-03-01T07:55:38.084Z,0.50
2018-03-01T07:58:05.508Z,0.40
2018-03-01T08:00:33.709Z,0.60
2018-03-01T08:03:01.860Z,0.50
2018-03-01T08:05:29.382Z,0.10
2018-03-01T08:07:56.820Z,0.20
2018-03-01T08:10:24.274Z,0.00
2018-03-01T08:12:51.717Z,-0.20
2018-03-01T08:15:19.163Z,0.00
2018-03-01T08:17:47.956Z,0.10
2018-03-01T08:20:15.479Z,0.00
2018-03-01T08:22:42.950Z,0.80
2018-03-01T08:25:11.162Z,1.50
2018-03-01T08:27:38.624Z,1.50
2018-03-01T08:30:06.053Z,1.10
2018-03-01T08:32:34.361Z,1.10
2018-03-01T08:35:01.796Z,1.10
2018-03-01T08:37:30.032Z,1.10
2018-03-01T08:39:57.454Z,1.10
2018-03-01T08:42:24.922Z,1.00
2018-03-01T08:44:52.361Z,1.50
2018-03-01T08:47:19.783Z,1.40
2018-03-01T08:49:47.984Z,1.60
2018-03-01T08:52:15.456Z,1.50
2018-03-01T08:54:42.886Z,2.10
2018-03-01T08:57:11.098Z,3.70
2018-03-01T08:59:38.550Z,3.60
2018-03-01T09:02:05.974Z,4.60
2018-03-01T09:04:34.176Z,5.50
2018-03-01T09:07:01.740Z,5.50
2018-03-01T09:09:29.222Z,5.40
2018-03-01T09:11:56.657Z,5.60
2018-03-01T09:14:24.083Z,5.60
2018-03-01T09:16:52.268Z,6.40
2018-03-01T09:19:19.712Z,6.40
2018-03-01T09:21:47.914Z,8.60
2018-03-01T09:24:15.347Z,8.60
2018-03-01T09:26:43.538Z,8.40
2018-03-01T09:29:11.018Z,8.30
2018-03-01T09:31:38.430Z,7.90
2018-03-01T09:34:06.647Z,8.80
2018-03-01T09:36:34.069Z,8.80
2018-03-01T09:39:01.520Z,8.90
2018-03-01T09:41:29.723Z,8.60
2018-03-01T09:43:57.185Z,8.50
2018-03-01T09:46:24.680Z,8.40
2018-03-01T09:48:52.316Z,8.60
2018-03-01T09:51:19.757Z,8.40
2018-03-01T09:53:47.196Z,8.90
2018-03-01T09:56:14.676Z,9.60
2018-03-01T09:58:42.096Z,10.50
2018-03-01T10:01:10.313Z,11.80
2018-03-01T10:03:37.753Z,11.70
2018-03-01T10:06:05.950Z,12.20
2018-03-01T10:08:33.389Z,12.10
2018-03-01T10:11:00.817Z,12.40
2018-03-01T10:13:29.021Z,12.20
2018-03-01T10:15:56.455Z,12.20
2018-03-01T10:18:24.678Z,11.90
2018-03-01T10:20:52.122Z,11.90
2018-03-01T10:23:19.581Z,12.20
2018-03-01T10:25:47.372Z,11.90
2018-03-01T10:28:14.823Z,11.80
2018-03-01T10:30:42.253Z,11.80
2018-03-01T10:33:09.796Z,12.30
2018-03-01T10:35:37.981Z,12.20
2018-03-01T10:38:05.419Z,12.20
2018-03-01T10:40:33.628Z,12.40
2018-03-01T10:43:01.074Z,12.40
2018-03-01T10:45:28.505Z,11.90
2018-03-01T10:47:56.707Z,11.90
2018-03-01T10:50:24.152Z,11.80
2018-03-01T10:52:52.351Z,12.60
2018-03-01T10:55:19.794Z,12.60
2018-03-01T10:57:47.218Z,12.90
2018-03-01T11:00:20.473Z,12.10
2018-03-01T11:02:47.922Z,12.30
2018-03-01T11:05:15.342Z,12.50
2018-03-01T11:07:43.565Z,12.50
2018-03-01T11:10:11.108Z,12.40
2018-03-01T11:12:38.566Z,13.10
2018-03-01T11:15:05.976Z,13.80
2018-03-01T11:17:34.177Z,12.90
2018-03-01T11:20:01.610Z,12.80
2018-03-01T11:22:29.875Z,12.60
2018-03-01T11:24:57.308Z,12.50
2018-03-01T11:27:24.749Z,12.80
2018-03-01T11:29:52.180Z,12.70
2018-03-01T11:32:19.638Z,13.10
2018-03-01T11:34:47.320Z,13.00
2018-03-01T11:37:14.716Z,12.90
2018-03-01T11:39:42.224Z,12.90
2018-03-01T11:42:10.414Z,12.00
2018-03-01T11:44:37.865Z,12.00
2018-03-01T11:47:05.322Z,12.00
2018-03-01T11:49:32.858Z,12.30
2018-03-01T11:52:01.040Z,12.30
2018-03-01T11:54:28.483Z,12.30
2018-03-01T11:56:56.829Z,12.30
2018-03-01T11:59:24.374Z,12.20
2018-03-01T12:01:51.911Z,11.90
2018-03-01T12:04:19.390Z,11.90
2018-03-01T12:06:46.832Z,12.00
2018-03-01T12:09:14.285Z,12.00
2018-03-01T12:11:41.898Z,11.60
2018-03-01T12:14:09.316Z,11.30
2018-03-01T12:16:36.749Z,11.40
2018-03-01T12:19:04.196Z,11.50
2018-03-01T12:21:32.380Z,11.70
2018-03-01T12:23:59.820Z,11.70
2018-03-01T12:26:28.018Z,11.90
2018-03-01T12:28:55.461Z,11.80
2018-03-01T12:31:24.108Z,11.30
2018-03-01T12:33:52.346Z,11.40
2018-03-01T12:36:19.776Z,11.40
2018-03-01T12:38:47.972Z,11.80
2018-03-01T12:41:15.427Z,11.80
2018-03-01T12:43:42.885Z,12.30
2018-03-01T12:46:14.166Z,12.80
2018-03-01T12:48:42.217Z,12.60
2018-03-01T12:51:09.662Z,12.60
2018-03-01T12:53:37.131Z,13.30
2018-03-01T12:56:04.570Z,13.00
2018-03-01T12:58:32.005Z,12.90
2018-03-01T13:01:00.204Z,13.10
2018-03-01T13:03:27.638Z,13.10
2018-03-01T13:05:55.850Z,11.60
2018-03-01T13:08:23.281Z,11.60
2018-03-01T13:10:51.552Z,9.80
2018-03-01T13:13:19.795Z,9.50
2018-03-01T13:15:47.222Z,9.50
2018-03-01T13:18:14.689Z,9.40
2018-03-01T13:20:42.101Z,9.80
2018-03-01T13:23:10.301Z,10.80
2018-03-01T13:25:37.729Z,10.80
2018-03-01T13:28:05.921Z,13.10
2018-03-01T13:30:34.270Z,13.10
2018-03-01T13:33:01.696Z,13.40
2018-03-01T13:35:29.150Z,13.10
2018-03-01T13:37:56.595Z,13.10
2018-03-01T13:40:24.029Z,12.90
2018-03-01T13:42:55.878Z,13.00
2018-03-01T13:45:24.087Z,12.60
2018-03-01T13:48:01.434Z,12.50
2018-03-01T13:50:28.865Z,12.30
2018-03-01T13:52:56.299Z,11.20
2018-03-01T13:55:23.737Z,10.00
2018-03-01T13:57:51.338Z,9.70
2018-03-01T14:00:18.764Z,8.80
2018-03-01T14:02:46.190Z,8.60
2018-03-01T14:05:14.385Z,7.20
2018-03-01T14:07:47.909Z,7.20
2018-03-01T14:10:15.333Z,7.00
2018-03-01T14:12:45.537Z,6.70
2018-03-01T14:15:13.758Z,6.50
2018-03-01T14:20:44.814Z,6.40
2018-03-01T14:23:16.845Z,6.50
2018-03-01T14:25:45.593Z,6.50
2018-03-01T14:28:24.887Z,6.50
2018-03-01T14:30:52.385Z,6.50
2018-03-01T14:33:19.766Z,6.20
2018-03-01T14:35:47.207Z,6.40
2018-03-01T14:38:14.637Z,6.90
2018-03-01T14:40:42.230Z,6.60
2018-03-01T14:43:09.662Z,6.40
2018-03-01T14:45:37.121Z,6.10
2018-03-01T14:48:04.579Z,6.00
2018-03-01T14:50:32.014Z,5.80
2018-03-01T14:52:59.496Z,5.70
2018-03-01T14:55:26.939Z,5.60
2018-03-01T14:57:54.396Z,5.20
2018-03-01T15:00:21.884Z,5.40
2018-03-01T15:02:49.309Z,5.40
2018-03-01T15:05:16.742Z,5.20
2018-03-01T15:07:44.194Z,5.10
2018-03-01T15:10:12.383Z,5.30
2018-03-01T15:12:39.821Z,5.30
2018-03-01T15:15:08.034Z,5.20
2018-03-01T15:17:35.461Z,5.20
2018-03-01T15:20:02.892Z,5.00
2018-03-01T15:22:31.110Z,5.10
2018-03-01T15:24:58.612Z,5.10
2018-03-01T15:27:26.030Z,5.20
2018-03-01T15:29:53.457Z,5.60
2018-03-01T15:32:21.667Z,5.80
2018-03-01T15:34:49.102Z,5.80
2018-03-01T15:37:17.297Z,6.00
2018-03-01T15:39:44.723Z,6.00
2018-03-01T15:42:12.912Z,6.00
2018-03-01T15:44:40.346Z,6.00
2018-03-01T15:47:07.789Z,6.10
2018-03-01T15:49:35.212Z,6.10
2018-03-01T15:52:02.670Z,5.70
2018-03-01T15:54:30.091Z,5.40
2018-03-01T15:56:58.289Z,5.20
2018-03-01T15:59:25.730Z,5.20
2018-03-01T16:01:53.918Z,5.00
2018-03-01T16:04:21.370Z,5.00
2018-03-01T16:06:48.799Z,4.80
2018-03-01T16:09:17.037Z,4.40
2018-03-01T16:11:44.578Z,4.30
2018-03-01T16:14:12.104Z,4.10
2018-03-01T16:16:40.309Z,4.10
2018-03-01T16:19:07.733Z,4.10
2018-03-01T16:21:35.954Z,4.10
2018-03-01T16:24:03.446Z,4.10
2018-03-01T16:26:30.861Z,3.80
2018-03-01T16:28:58.310Z,3.70
2018-03-01T16:31:25.738Z,3.60
2018-03-01T16:33:53.966Z,3.60
2018-03-01T16:36:21.402Z,3.60
2018-03-01T16:38:48.845Z,3.40
2018-03-01T16:41:16.281Z,3.50
2018-03-01T16:43:45.471Z,3.50
2018-03-01T16:46:12.900Z,3.50
2018-03-01T16:48:40.346Z,3.40
2018-03-01T16:51:07.825Z,3.10
2018-03-01T16:53:35.287Z,3.20
2018-03-01T16:56:02.704Z,3.30
2018-03-01T16:58:30.133Z,3.50
2018-03-01T17:00:58.340Z,3.10
2018-03-01T17:03:25.798Z,3.00
2018-03-01T17:05:53.205Z,3.20
2018-03-01T17:08:20.650Z,3.10
2018-03-01T17:10:48.837Z,2.70
2018-03-01T17:13:17.041Z,2.90
2018-03-01T17:15:44.472Z,2.90
2018-03-01T17:18:11.932Z,3.00
2018-03-01T17:20:40.154Z,2.90
2018-03-01T17:23:07.596Z,2.80
2018-03-01T17:25:35.040Z,2.60
2018-03-01T17:28:02.557Z,2.40
2018-03-01T17:30:29.983Z,2.30
2018-03-01T17:32:57.419Z,2.40
2018-03-01T17:35:24.842Z,2.20
2018-03-01T17:37:52.273Z,2.60
2018-03-01T17:40:20.476Z,2.40
2018-03-01T17:42:47.925Z,2.40
2018-03-01T17:45:15.341Z,2.50
2018-03-01T17:47:42.801Z,2.60
2018-03-01T17:50:10.228Z,2.60
2018-03-01T17:52:38.448Z,2.60
2018-03-01T17:55:05.889Z,2.60
2018-03-01T17:57:33.336Z,2.60
2018-03-01T18:00:00.782Z,2.30
2018-03-01T18:02:29.083Z,2.20
2018-03-01T18:04:56.505Z,2.10
2018-03-01T18:07:24.712Z,2.00
2018-03-01T18:09:53.133Z,2.00
2018-03-01T18:12:20.593Z,2.20
2018-03-01T18:14:48.049Z,2.30
2018-03-01T18:17:15.479Z,2.30
2018-03-01T18:19:42.944Z,2.20
2018-03-01T18:22:11.241Z,2.60
2018-03-01T18:24:38.679Z,2.30
2018-03-01T18:27:06.114Z,2.40
2018-03-01T18:29:33.557Z,2.40
2018-03-01T18:32:00.991Z,2.50
2018-03-01T18:34:29.200Z,2.10
2018-03-01T18:36:56.616Z,2.10
2018-03-01T18:39:24.073Z,2.00
2018-03-01T18:41:51.496Z,1.80
2018-03-01T18:44:18.920Z,1.90
2018-03-01T18:46:46.349Z,2.00
2018-03-01T18:49:14.691Z,2.00
2018-03-01T18:51:43.560Z,2.00
2018-03-01T18:54:10.993Z,1.90
2018-03-01T18:56:39.177Z,1.20
2018-03-01T18:59:06.620Z,1.20
2018-03-01T19:01:34.873Z,1.60
2018-03-01T19:04:02.544Z,1.60
2018-03-01T19:06:29.999Z,1.70
2018-03-01T19:08:57.433Z,1.60
2018-03-01T19:11:24.889Z,1.30
2018-03-01T19:13:52.389Z,1.20
2018-03-01T19:16:20.564Z,1.30
2018-03-01T19:18:48.783Z,1.10
2018-03-01T19:21:16.226Z,1.00
2018-03-01T19:23:44.455Z,0.90
2018-03-01T19:26:11.870Z,1.00
2018-03-01T19:28:39.306Z,1.10
2018-03-01T19:31:06.729Z,1.30
2018-03-01T19:33:34.960Z,0.90
2018-03-01T19:36:02.388Z,0.90
2018-03-01T19:38:29.816Z,0.90
2018-03-01T19:40:58.013Z,0.80
2018-03-01T19:43:25.440Z,0.80
2018-03-01T19:45:52.984Z,1.00
2018-03-01T19:48:20.418Z,1.20
2018-03-01T19:50:47.859Z,1.00
2018-03-01T19:53:15.281Z,0.60
2018-03-01T19:55:43.808Z,0.70
2018-03-01T19:58:11.213Z,1.00
2018-03-01T20:00:38.642Z,1.20
2018-03-01T20:03:06.080Z,1.30
2018-03-01T20:05:33.506Z,1.40
2018-03-01T20:08:01.710Z,1.00
2018-03-01T20:10:29.147Z,1.00
2018-03-01T20:12:57.334Z,0.60
2018-03-01T20:15:24.757Z,0.60
2018-03-01T20:17:53.046Z,0.90
2018-03-01T20:20:21.233Z,0.70
2018-03-01T20:22:48.671Z,0.70
2018-03-01T20:25:16.869Z,0.70
2018-03-01T20:27:44.292Z,0.70
2018-03-01T20:30:11.720Z,0.90
2018-03-01T20:32:39.145Z,0.60
2018-03-01T20:35:06.576Z,0.50
2018-03-01T20:37:34.768Z,0.60
2018-03-01T20:40:02.199Z,0.60
2018-03-01T20:42:29.618Z,0.30
2018-03-01T20:44:57.942Z,0.40
2018-03-01T20:47:26.137Z,0.20
2018-03-01T20:49:53.569Z,0.20
2018-03-01T20:52:21.802Z,0.20
2018-03-01T20:54:49.233Z,0.20
2018-03-01T20:57:16.665Z,0.40
2018-03-01T20:59:44.884Z,0.50
2018-03-01T21:02:12.297Z,0.50
2018-03-01T21:04:41.347Z,0.10
2018-03-01T21:07:08.776Z,0.10
2018-03-01T21:09:36.253Z,0.10
2018-03-01T21:12:03.696Z,0.20
2018-03-01T21:14:31.158Z,0.20
2018-03-01T21:16:58.580Z,0.20
2018-03-01T21:19:26.789Z,0.00
2018-03-01T21:21:54.222Z,0.00
2018-03-01T21:24:22.438Z,0.00
2018-03-01T21:26:49.874Z,0.00
2018-03-01T21:29:17.316Z,0.00
2018-03-01T21:31:44.750Z,0.10
2018-03-01T21:34:12.180Z,0.20
2018-03-01T21:36:39.633Z,-0.20
2018-03-01T21:39:07.060Z,-0.20
2018-03-01T21:41:34.501Z,-0.10
2018-03-01T21:44:01.986Z,0.10
2018-03-01T21:46:29.438Z,0.10
2018-03-01T21:48:56.868Z,0.20
2018-03-01T21:51:25.090Z,-0.40
2018-03-01T21:53:52.551Z,-0.40
2018-03-01T21:56:19.999Z,-0.40
2018-03-01T21:58:47.438Z,-0.30
2018-03-01T22:01:14.869Z,-0.20
2018-03-01T22:03:43.108Z,-0.10
2018-03-01T22:06:10.569Z,-0.10
2018-03-01T22:08:38.046Z,-0.30
2018-03-01T22:11:05.477Z,-0.60
2018-03-01T22:13:32.917Z,-0.90
2018-03-01T22:16:00.346Z,-0.60
2018-03-01T22:18:27.774Z,-0.40
2018-03-01T22:20:55.210Z,-0.40
2018-03-01T22:23:22.635Z,-0.40
2018-03-01T22:25:50.091Z,-0.50
2018-03-01T22:28:17.566Z,-0.50
2018-03-01T22:30:45.008Z,-0.50
2018-03-01T22:33:13.328Z,-0.20
2018-03-01T22:35:40.760Z,-0.30
2018-03-01T22:38:08.244Z,-0.50
2018-03-01T22:40:35.657Z,-0.30
2018-03-01T22:43:03.090Z,-0.30
2018-03-01T22:45:30.528Z,-0.50
2018-03-01T22:47:57.964Z,-0.40
2018-03-01T22:50:25.407Z,-0.30
2018-03-01T22:52:52.836Z,-0.40
2018-03-01T22:55:20.260Z,-0.70
2018-03-01T22:57:48.462Z,-0.60
2018-03-01T23:03:05.620Z,-0.60
2018-03-01T23:05:33.053Z,-0.90
2018-03-01T23:08:00.485Z,-1.00
2018-03-01T23:10:27.916Z,-0.90
2018-03-01T23:12:55.341Z,-0.90
2018-03-01T23:15:22.781Z,-0.90
2018-03-01T23:17:50.208Z,-0.80
2018-03-01T23:20:18.429Z,-0.80
2018-03-01T23:22:45.852Z,-0.80
2018-03-01T23:25:14.045Z,-0.90
2018-03-01T23:27:41.486Z,-0.90
2018-03-01T23:30:09.684Z,-0.90
2018-03-01T23:32:37.146Z,-0.90
2018-03-01T23:35:04.573Z,-0.70
2018-03-01T23:37:32.787Z,-0.80
2018-03-01T23:40:00.228Z,-0.80
2018-03-01T23:42:27.689Z,-0.80
2018-03-01T23:44:55.121Z,-0.70
2018-03-01T23:47:23.317Z,-0.60
2018-03-01T23:49:50.744Z,-0.60
2018-03-01T23:52:18.954Z,-0.60
2018-03-01T23:54:46.385Z,-0.60
2018-03-01T23:57:14.596Z,-0.80
2018-03-01T23:59:42.035Z,-0.90
